createdAt,value
2023-05-05T00:00:36.336Z,79.57
2023-05-05T00:01:31.575Z,79.58
2023-05-05T00:02:27.687Z,79.71
2023-05-05T00:03:22.597Z,79.78
2023-05-05T00:04:17.794Z,79.83
2023-05-05T00:05:12.876Z,79.88
2023-05-05T00:06:08.176Z,79.85
2023-05-05T00:07:03.642Z,79.75
2023-05-05T00:07:58.877Z,79.71
2023-05-05T00:08:54.023Z,79.69
2023-05-05T00:09:49.987Z,79.67
2023-05-05T00:10:45.019Z,79.65
2023-05-05T00:11:40.292Z,79.62
2023-05-05T00:12:35.692Z,79.72
2023-05-05T00:13:30.637Z,79.71
2023-05-05T00:14:25.650Z,79.77
2023-05-05T00:15:20.781Z,79.86
2023-05-05T00:16:15.786Z,79.90
2023-05-05T00:17:11.198Z,80.09
2023-05-05T00:18:05.898Z,79.99
2023-05-05T00:19:00.994Z,80.02
2023-05-05T00:19:56.073Z,80.05
2023-05-05T00:20:51.141Z,80.30
2023-05-05T00:21:46.321Z,80.22
2023-05-05T00:22:41.273Z,80.29
2023-05-05T00:23:36.266Z,80.33
2023-05-05T00:24:31.391Z,80.45
2023-05-05T00:25:26.615Z,80.41
2023-05-05T00:26:21.615Z,80.44
2023-05-05T00:27:16.834Z,80.49
2023-05-05T00:28:11.774Z,80.51
2023-05-05T00:29:06.765Z,80.58
2023-05-05T00:30:01.883Z,80.66
2023-05-05T00:30:56.858Z,80.68
2023-05-05T00:31:52.032Z,80.79
2023-05-05T00:32:47.043Z,80.89
2023-05-05T00:33:42.013Z,80.89
2023-05-05T00:34:37.085Z,80.96
2023-05-05T00:35:32.230Z,81.05
2023-05-05T00:36:28.178Z,81.05
2023-05-05T00:37:23.420Z,80.96
2023-05-05T00:38:18.749Z,80.93
2023-05-05T00:39:14.869Z,80.99
2023-05-05T00:40:10.207Z,81.09
2023-05-05T00:41:05.908Z,81.22
2023-05-05T00:42:01.249Z,81.14
2023-05-05T00:42:56.515Z,81.02
2023-05-05T00:43:52.187Z,81.01
2023-05-05T00:44:47.419Z,80.95
2023-05-05T00:45:43.238Z,80.96
2023-05-05T00:46:38.625Z,81.02
2023-05-05T00:47:33.744Z,80.99
2023-05-05T00:48:29.445Z,80.87
2023-05-05T00:49:24.700Z,80.91
2023-05-05T00:50:19.921Z,81.10
2023-05-05T00:51:16.147Z,81.12
2023-05-05T00:52:11.403Z,81.09
2023-05-05T00:53:07.128Z,81.15
2023-05-05T00:54:02.367Z,81.08
2023-05-05T00:54:57.453Z,81.18
2023-05-05T00:55:53.277Z,81.26
2023-05-05T00:56:48.732Z,81.34
2023-05-05T00:57:44.421Z,81.42
2023-05-05T00:58:39.580Z,81.36
2023-05-05T00:59:34.853Z,81.44
2023-05-05T01:00:30.572Z,81.55
2023-05-05T01:01:25.860Z,81.51
2023-05-05T01:02:20.991Z,81.50
2023-05-05T01:03:17.455Z,81.58
2023-05-05T01:04:12.562Z,81.59
2023-05-05T01:05:08.394Z,81.61
2023-05-05T01:06:03.480Z,81.61
2023-05-05T01:06:58.915Z,81.66
2023-05-05T01:07:54.642Z,81.69
2023-05-05T01:08:49.889Z,81.63
2023-05-05T01:09:45.797Z,81.47
2023-05-05T01:10:40.924Z,81.49
2023-05-05T01:11:36.477Z,81.49
2023-05-05T01:12:32.220Z,81.56
2023-05-05T01:13:27.377Z,81.74
2023-05-05T01:14:22.736Z,81.89
2023-05-05T01:15:18.780Z,81.95
2023-05-05T01:16:14.071Z,82.16
2023-05-05T01:17:09.976Z,82.48
2023-05-05T01:18:05.088Z,82.56
2023-05-05T01:19:00.429Z,82.61
2023-05-05T01:19:56.185Z,82.51
2023-05-05T01:20:51.432Z,82.43
2023-05-05T01:21:47.231Z,82.37
2023-05-05T01:22:42.597Z,82.42
2023-05-05T01:23:37.887Z,82.39
2023-05-05T01:24:33.564Z,82.38
2023-05-05T01:25:28.828Z,82.37
2023-05-05T01:26:24.000Z,82.45
2023-05-05T01:27:20.648Z,82.45
2023-05-05T01:28:15.767Z,82.42
2023-05-05T01:29:11.529Z,82.42
2023-05-05T01:30:06.934Z,82.44
2023-05-05T01:31:01.933Z,82.49
2023-05-05T01:31:57.985Z,82.60
2023-05-05T01:32:53.010Z,82.63
2023-05-05T01:33:48.748Z,82.63
2023-05-05T01:34:43.989Z,82.66
2023-05-05T01:35:39.189Z,82.82
2023-05-05T01:36:34.419Z,82.92
2023-05-05T01:37:29.678Z,82.86
2023-05-05T01:38:25.972Z,82.94
2023-05-05T01:39:21.189Z,82.90
2023-05-05T01:40:17.082Z,82.65
2023-05-05T01:41:12.157Z,82.53
2023-05-05T01:42:07.748Z,82.37
2023-05-05T01:43:03.224Z,82.33
2023-05-05T01:43:58.463Z,82.35
2023-05-05T01:44:54.257Z,82.48
2023-05-05T01:45:49.567Z,82.58
2023-05-05T01:46:44.751Z,82.68
2023-05-05T01:47:40.649Z,82.71
2023-05-05T01:48:35.588Z,82.63
2023-05-05T01:49:30.850Z,82.75
2023-05-05T01:50:27.056Z,82.78
2023-05-05T01:51:22.375Z,82.71
2023-05-05T01:52:18.294Z,82.55
2023-05-05T01:53:13.407Z,82.41
2023-05-05T01:54:08.610Z,82.37
2023-05-05T01:55:03.886Z,82.35
2023-05-05T01:55:59.115Z,82.37
2023-05-05T01:56:54.255Z,82.35
2023-05-05T01:57:49.514Z,82.54
2023-05-05T01:58:45.347Z,82.55
2023-05-05T01:59:40.560Z,82.43
2023-05-05T02:00:35.882Z,82.42
2023-05-05T02:01:31.598Z,82.48
2023-05-05T02:02:27.026Z,82.64
2023-05-05T02:03:22.094Z,82.70
2023-05-05T02:04:17.143Z,82.49
2023-05-05T02:05:12.175Z,82.65
2023-05-05T02:06:07.306Z,82.54
2023-05-05T02:07:02.443Z,82.61
2023-05-05T02:07:57.643Z,82.76
2023-05-05T02:08:52.516Z,82.99
2023-05-05T02:09:47.604Z,83.00
2023-05-05T02:10:42.876Z,83.02
2023-05-05T02:11:38.077Z,82.91
2023-05-05T02:12:33.386Z,82.95
2023-05-05T02:13:28.196Z,82.87
2023-05-05T02:14:23.258Z,83.02
2023-05-05T02:15:18.313Z,83.05
2023-05-05T02:16:13.711Z,82.96
2023-05-05T02:17:08.621Z,82.87
2023-05-05T02:18:03.953Z,82.93
2023-05-05T02:18:58.805Z,83.12
2023-05-05T02:19:53.986Z,83.18
2023-05-05T02:20:48.956Z,83.14
2023-05-05T02:21:44.021Z,83.03
2023-05-05T02:22:39.226Z,82.92
2023-05-05T02:23:34.233Z,82.84
2023-05-05T02:24:29.206Z,82.86
2023-05-05T02:25:24.436Z,82.98
2023-05-05T02:26:19.259Z,83.01
2023-05-05T02:27:18.682Z,83.01
2023-05-05T02:28:13.693Z,83.00
2023-05-05T02:29:08.796Z,82.94
2023-05-05T02:30:03.748Z,82.97
2023-05-05T02:30:59.035Z,83.03
2023-05-05T02:31:54.185Z,83.10
2023-05-05T02:32:49.438Z,83.17
2023-05-05T02:33:44.213Z,83.30
2023-05-05T02:34:39.362Z,83.34
2023-05-05T02:35:34.444Z,83.19
2023-05-05T02:36:29.567Z,83.10
2023-05-05T02:37:24.708Z,83.09
2023-05-05T02:38:19.683Z,83.14
2023-05-05T02:39:14.661Z,83.20
2023-05-05T02:40:09.961Z,83.21
2023-05-05T02:41:04.859Z,83.26
2023-05-05T02:42:00.154Z,83.49
2023-05-05T02:42:54.994Z,83.67
2023-05-05T02:43:52.561Z,83.87
2023-05-05T02:44:47.568Z,83.89
2023-05-05T02:45:42.655Z,83.84
2023-05-05T02:46:37.797Z,83.74
2023-05-05T02:47:33.002Z,83.78
2023-05-05T02:48:27.944Z,83.69
2023-05-05T02:49:23.065Z,83.67
2023-05-05T02:50:18.226Z,83.61
2023-05-05T02:51:14.047Z,83.63
2023-05-05T02:52:09.325Z,83.71
2023-05-05T02:53:04.311Z,83.81
2023-05-05T02:53:59.518Z,83.88
2023-05-05T02:54:54.667Z,83.97
2023-05-05T02:55:49.816Z,84.08
2023-05-05T02:56:45.021Z,84.13
2023-05-05T02:57:40.334Z,84.11
2023-05-05T02:58:35.596Z,84.12
2023-05-05T02:59:33.153Z,84.02
2023-05-05T03:00:28.320Z,83.96
2023-05-05T03:01:23.539Z,84.00
2023-05-05T03:02:18.979Z,83.95
2023-05-05T03:03:14.233Z,83.88
2023-05-05T03:04:09.306Z,83.70
2023-05-05T03:05:04.366Z,83.60
2023-05-05T03:05:59.590Z,83.45
2023-05-05T03:06:54.697Z,83.46
2023-05-05T03:07:50.794Z,83.63
2023-05-05T03:08:45.862Z,83.59
2023-05-05T03:09:41.782Z,83.68
2023-05-05T03:10:36.909Z,83.51
2023-05-05T03:11:32.336Z,83.39
2023-05-05T03:12:28.061Z,83.29
2023-05-05T03:13:23.211Z,83.20
2023-05-05T03:14:18.514Z,83.04
2023-05-05T03:15:14.738Z,82.87
2023-05-05T03:16:09.960Z,82.89
2023-05-05T03:17:05.809Z,83.00
2023-05-05T03:18:00.913Z,82.98
2023-05-05T03:18:56.146Z,83.04
2023-05-05T03:19:51.938Z,83.15
2023-05-05T03:20:47.336Z,83.12
2023-05-05T03:21:42.978Z,83.02
2023-05-05T03:22:38.375Z,82.99
2023-05-05T03:23:33.419Z,82.94
2023-05-05T03:24:29.241Z,82.86
2023-05-05T03:25:24.352Z,82.74
2023-05-05T03:26:19.627Z,82.80
2023-05-05T03:27:15.880Z,82.78
2023-05-05T03:28:11.321Z,82.84
2023-05-05T03:29:06.919Z,83.00
2023-05-05T03:30:02.226Z,83.07
2023-05-05T03:30:57.334Z,83.11
2023-05-05T03:31:53.235Z,83.32
2023-05-05T03:32:48.619Z,83.36
2023-05-05T03:33:44.297Z,83.42
2023-05-05T03:34:39.449Z,83.45
2023-05-05T03:35:34.730Z,83.43
2023-05-05T03:36:30.602Z,83.46
2023-05-05T03:37:25.890Z,83.48
2023-05-05T03:38:21.484Z,83.61
2023-05-05T03:39:17.418Z,83.67
2023-05-05T03:40:12.528Z,83.82
2023-05-05T03:41:08.383Z,83.99
2023-05-05T03:42:03.629Z,84.00
2023-05-05T03:42:58.943Z,84.00
2023-05-05T03:43:54.641Z,84.03
2023-05-05T03:44:49.885Z,84.06
2023-05-05T03:45:45.709Z,84.19
2023-05-05T03:46:40.899Z,84.31
2023-05-05T03:47:36.294Z,84.27
2023-05-05T03:48:32.052Z,84.11
2023-05-05T03:49:27.260Z,83.98
2023-05-05T03:50:22.532Z,84.01
2023-05-05T03:51:18.712Z,84.02
2023-05-05T03:52:15.057Z,84.03
2023-05-05T03:53:09.827Z,84.06
2023-05-05T03:54:05.149Z,84.07
2023-05-05T03:55:00.239Z,84.20
2023-05-05T03:55:56.091Z,84.16
2023-05-05T03:56:51.383Z,84.13
2023-05-05T03:57:47.252Z,84.04
2023-05-05T03:58:42.467Z,84.11
2023-05-05T03:59:37.825Z,84.13
2023-05-05T04:00:33.590Z,84.17
2023-05-05T04:01:29.033Z,84.14
2023-05-05T04:02:24.252Z,84.14
2023-05-05T04:03:20.737Z,84.19
2023-05-05T04:04:15.904Z,84.17
2023-05-05T04:05:11.695Z,84.17
2023-05-05T04:06:06.972Z,84.07
2023-05-05T04:07:02.318Z,83.80
2023-05-05T04:07:57.634Z,83.58
2023-05-05T04:08:52.836Z,83.50
2023-05-05T04:09:47.666Z,83.31
2023-05-05T04:10:42.730Z,83.38
2023-05-05T04:11:37.811Z,83.42
2023-05-05T04:12:37.441Z,83.47
2023-05-05T04:13:27.980Z,83.62
2023-05-05T04:14:22.836Z,83.67
2023-05-05T04:15:17.918Z,83.73
2023-05-05T04:16:13.106Z,83.96
2023-05-05T04:17:07.975Z,83.95
2023-05-05T04:18:03.120Z,84.01
2023-05-05T04:19:01.644Z,84.11
2023-05-05T04:19:56.770Z,84.13
2023-05-05T04:20:51.756Z,84.01
2023-05-05T04:21:46.934Z,83.96
2023-05-05T04:22:42.112Z,83.89
2023-05-05T04:23:37.082Z,83.80
2023-05-05T04:24:32.109Z,83.78
2023-05-05T04:25:27.316Z,83.81
2023-05-05T04:26:22.417Z,84.04
2023-05-05T04:27:17.572Z,84.17
2023-05-05T04:28:12.425Z,84.18
2023-05-05T04:29:07.836Z,84.15
2023-05-05T04:30:03.485Z,84.11
2023-05-05T04:30:58.955Z,83.99
2023-05-05T04:31:54.401Z,83.90
2023-05-05T04:32:49.881Z,83.88
2023-05-05T04:33:44.692Z,83.96
2023-05-05T04:34:39.742Z,84.10
2023-05-05T04:35:34.727Z,84.23
2023-05-05T04:36:29.747Z,84.35
2023-05-05T04:37:24.933Z,84.58
2023-05-05T04:38:19.940Z,84.52
2023-05-05T04:39:14.904Z,84.46
2023-05-05T04:40:10.147Z,84.32
2023-05-05T04:41:04.896Z,84.33
2023-05-05T04:42:00.041Z,84.13
2023-05-05T04:42:55.302Z,84.05
2023-05-05T04:43:50.232Z,83.95
2023-05-05T04:44:45.191Z,83.92
2023-05-05T04:45:40.370Z,83.80
2023-05-05T04:46:35.360Z,83.69
2023-05-05T04:47:30.480Z,83.59
2023-05-05T04:48:25.656Z,83.47
2023-05-05T04:49:20.656Z,83.41
2023-05-05T04:50:15.801Z,83.39
2023-05-05T04:51:10.802Z,83.38
2023-05-05T04:52:07.851Z,83.31
2023-05-05T04:53:03.118Z,83.17
2023-05-05T04:53:58.076Z,82.98
2023-05-05T04:54:52.995Z,82.79
2023-05-05T04:55:48.142Z,82.66
2023-05-05T04:56:43.118Z,82.62
2023-05-05T04:57:38.279Z,82.63
2023-05-05T04:58:33.289Z,82.54
2023-05-05T04:59:28.390Z,82.39
2023-05-05T05:00:23.491Z,82.35
2023-05-05T05:01:19.824Z,82.30
2023-05-05T05:02:15.219Z,82.18
2023-05-05T05:03:11.222Z,82.03
2023-05-05T05:04:06.427Z,81.88
2023-05-05T05:05:01.788Z,81.65
2023-05-05T05:05:57.501Z,81.63
2023-05-05T05:06:52.886Z,81.61
2023-05-05T05:07:48.948Z,81.69
2023-05-05T05:08:44.181Z,81.65
2023-05-05T05:09:39.543Z,81.61
2023-05-05T05:10:35.379Z,81.63
2023-05-05T05:11:30.840Z,81.65
2023-05-05T05:12:26.559Z,81.54
2023-05-05T05:13:22.596Z,81.44
2023-05-05T05:14:17.913Z,81.27
2023-05-05T05:15:13.678Z,81.23
2023-05-05T05:16:09.141Z,81.07
2023-05-05T05:17:04.510Z,80.90
2023-05-05T05:18:00.561Z,80.79
2023-05-05T05:18:55.763Z,80.60
2023-05-05T05:19:51.650Z,80.36
2023-05-05T05:20:46.805Z,80.20
2023-05-05T05:21:42.379Z,80.20
2023-05-05T05:22:38.055Z,79.94
2023-05-05T05:23:33.593Z,79.85
2023-05-05T05:24:28.933Z,79.69
2023-05-05T05:25:25.357Z,79.61
2023-05-05T05:26:20.729Z,79.24
2023-05-05T05:27:16.851Z,79.10
2023-05-05T05:28:12.106Z,78.95
2023-05-05T05:29:07.650Z,78.83
2023-05-05T05:30:03.330Z,78.74
2023-05-05T05:30:58.708Z,78.70
2023-05-05T05:31:54.590Z,78.58
2023-05-05T05:32:50.105Z,78.34
2023-05-05T05:33:45.337Z,78.03
2023-05-05T05:34:41.241Z,77.54
2023-05-05T05:35:36.513Z,77.43
2023-05-05T05:36:31.907Z,77.14
2023-05-05T05:37:28.350Z,77.14
2023-05-05T05:38:23.622Z,77.34
2023-05-05T05:39:19.407Z,77.41
2023-05-05T05:40:14.835Z,77.17
2023-05-05T05:41:10.198Z,77.14
2023-05-05T05:42:06.106Z,77.19
2023-05-05T05:43:01.446Z,77.04
2023-05-05T05:43:56.945Z,77.13
2023-05-05T05:44:51.968Z,77.21
2023-05-05T05:45:47.167Z,76.98
2023-05-05T05:46:42.134Z,76.63
2023-05-05T05:47:37.305Z,76.77
2023-05-05T05:48:32.244Z,76.41
2023-05-05T05:49:27.400Z,76.19
2023-05-05T05:50:22.386Z,76.02
2023-05-05T05:51:17.538Z,75.73
2023-05-05T05:52:12.542Z,75.44
2023-05-05T05:53:09.667Z,75.51
2023-05-05T05:54:04.629Z,75.42
2023-05-05T05:54:59.658Z,75.67
2023-05-05T05:55:54.633Z,75.91
2023-05-05T05:56:49.819Z,75.78
2023-05-05T05:57:44.791Z,75.60
2023-05-05T05:58:39.836Z,75.62
2023-05-05T05:59:34.817Z,75.82
2023-05-05T06:00:29.923Z,75.94
2023-05-05T06:01:25.142Z,76.20
2023-05-05T06:02:20.851Z,76.35
2023-05-05T06:03:16.170Z,76.49
2023-05-05T06:04:12.007Z,76.25
2023-05-05T06:05:07.332Z,76.14
2023-05-05T06:06:02.692Z,75.95
2023-05-05T06:06:58.513Z,76.09
2023-05-05T06:07:53.905Z,75.82
2023-05-05T06:08:49.552Z,75.28
2023-05-05T06:09:44.943Z,74.94
2023-05-05T06:10:39.894Z,74.96
2023-05-05T06:11:34.989Z,74.99
2023-05-05T06:12:30.266Z,75.23
2023-05-05T06:13:25.105Z,75.32
2023-05-05T06:14:20.238Z,75.31
2023-05-05T06:15:15.174Z,75.20
2023-05-05T06:16:10.147Z,75.03
2023-05-05T06:17:05.209Z,74.79
2023-05-05T06:18:00.291Z,74.57
2023-05-05T06:18:55.322Z,74.42
2023-05-05T06:19:50.413Z,74.43
2023-05-05T06:20:45.787Z,74.29
2023-05-05T06:21:41.657Z,74.14
2023-05-05T06:22:36.869Z,73.82
2023-05-05T06:23:32.277Z,73.51
2023-05-05T06:24:28.088Z,73.32
2023-05-05T06:25:23.330Z,72.82
2023-05-05T06:26:19.281Z,72.89
2023-05-05T06:27:14.592Z,72.61
2023-05-05T06:28:09.854Z,72.42
2023-05-05T06:29:05.514Z,72.20
2023-05-05T06:30:01.049Z,71.81
2023-05-05T06:30:56.373Z,71.77
2023-05-05T06:31:52.908Z,71.73
2023-05-05T06:32:48.189Z,71.55
2023-05-05T06:33:44.136Z,71.72
2023-05-05T06:34:39.536Z,71.76
2023-05-05T06:35:34.890Z,71.96
2023-05-05T06:36:31.016Z,72.00
2023-05-05T06:37:26.046Z,72.01
2023-05-05T06:38:21.919Z,71.92
2023-05-05T06:39:17.139Z,71.92
2023-05-05T06:40:12.476Z,72.06
2023-05-05T06:41:08.251Z,72.00
2023-05-05T06:42:03.740Z,71.57
2023-05-05T06:42:59.126Z,71.35
2023-05-05T06:43:55.352Z,71.13
2023-05-05T06:44:50.943Z,71.23
2023-05-05T06:45:46.763Z,70.95
2023-05-05T06:46:42.446Z,70.51
2023-05-05T06:47:37.924Z,70.17
2023-05-05T06:48:33.667Z,70.00
2023-05-05T06:49:29.007Z,69.86
2023-05-05T06:50:25.103Z,69.40
2023-05-05T06:51:20.531Z,68.87
2023-05-05T06:52:15.826Z,68.61
2023-05-05T06:53:11.478Z,67.99
2023-05-05T06:54:06.981Z,67.89
2023-05-05T06:55:02.571Z,67.79
2023-05-05T06:55:58.957Z,67.66
2023-05-05T06:56:54.169Z,67.48
2023-05-05T06:57:50.122Z,67.45
2023-05-05T06:58:45.634Z,67.36
2023-05-05T06:59:41.037Z,67.15
2023-05-05T07:00:36.914Z,66.91
2023-05-05T07:01:32.529Z,66.63
2023-05-05T07:02:28.314Z,66.61
2023-05-05T07:03:23.772Z,66.74
2023-05-05T07:04:19.106Z,66.43
2023-05-05T07:05:14.786Z,66.50
2023-05-05T07:06:10.145Z,66.12
2023-05-05T07:07:05.692Z,65.86
2023-05-05T07:08:01.827Z,66.00
2023-05-05T07:08:57.228Z,66.22
2023-05-05T07:09:53.079Z,66.33
2023-05-05T07:10:48.968Z,66.34
2023-05-05T07:11:44.273Z,66.14
2023-05-05T07:12:40.074Z,66.33
2023-05-05T07:13:35.424Z,67.01
2023-05-05T07:14:31.452Z,67.06
2023-05-05T07:15:28.590Z,67.28
2023-05-05T07:16:22.312Z,67.79
2023-05-05T07:17:17.763Z,68.03
2023-05-05T07:18:12.881Z,67.90
2023-05-05T07:19:07.937Z,68.09
2023-05-05T07:20:08.088Z,68.02
2023-05-05T07:21:03.318Z,68.11
2023-05-05T07:21:58.553Z,68.43
2023-05-05T07:22:54.357Z,68.67
2023-05-05T07:23:49.879Z,68.68
2023-05-05T07:24:45.326Z,68.88
2023-05-05T07:25:41.735Z,69.15
2023-05-05T07:26:36.963Z,69.38
2023-05-05T07:27:32.905Z,69.63
2023-05-05T07:28:28.287Z,69.76
2023-05-05T07:29:23.812Z,69.70
2023-05-05T07:30:20.083Z,69.83
2023-05-05T07:31:15.191Z,70.07
2023-05-05T07:32:10.939Z,70.06
2023-05-05T07:33:06.320Z,69.96
2023-05-05T07:34:01.671Z,69.95
2023-05-05T07:34:57.136Z,69.91
2023-05-05T07:35:52.678Z,69.81
2023-05-05T07:36:48.509Z,69.82
2023-05-05T07:37:43.899Z,69.90
2023-05-05T07:38:39.430Z,70.12
2023-05-05T07:39:35.113Z,70.07
2023-05-05T07:40:30.653Z,69.98
2023-05-05T07:41:26.291Z,69.95
2023-05-05T07:42:21.588Z,70.07
2023-05-05T07:43:16.704Z,70.17
2023-05-05T07:44:11.831Z,70.23
2023-05-05T07:45:06.865Z,70.18
2023-05-05T07:46:06.529Z,70.22
2023-05-05T07:47:01.767Z,70.16
2023-05-05T07:47:57.432Z,70.13
2023-05-05T07:48:52.891Z,69.89
2023-05-05T07:49:48.410Z,69.55
2023-05-05T07:50:44.068Z,69.30
2023-05-05T07:51:40.174Z,69.10
2023-05-05T07:52:46.651Z,69.10
2023-05-05T07:53:32.354Z,69.15
2023-05-05T07:55:50.501Z,69.71
2023-05-05T07:56:45.654Z,69.79
2023-05-05T07:57:41.035Z,69.67
2023-05-05T07:58:36.521Z,69.64
2023-05-05T07:59:31.909Z,69.87
2023-05-05T08:00:27.814Z,69.91
2023-05-05T08:01:23.163Z,69.71
2023-05-05T08:02:18.833Z,69.88
2023-05-05T08:03:14.284Z,69.72
2023-05-05T08:04:09.744Z,69.58
2023-05-05T08:05:05.304Z,69.69
2023-05-05T08:06:00.791Z,69.24
2023-05-05T08:06:56.078Z,69.13
2023-05-05T08:07:51.625Z,68.94
2023-05-05T08:08:46.955Z,68.59
2023-05-05T08:09:42.402Z,68.29
2023-05-05T08:10:37.962Z,68.15
2023-05-05T08:11:33.246Z,68.01
2023-05-05T08:12:28.686Z,67.58
2023-05-05T08:13:24.211Z,67.57
2023-05-05T08:14:19.711Z,67.49
2023-05-05T08:15:15.113Z,67.44
2023-05-05T08:16:10.664Z,67.66
2023-05-05T08:17:06.051Z,67.75
2023-05-05T08:18:01.342Z,67.82
2023-05-05T08:18:56.712Z,67.97
2023-05-05T08:19:52.082Z,67.94
2023-05-05T08:20:47.772Z,68.03
2023-05-05T08:21:43.117Z,67.65
2023-05-05T08:22:38.543Z,67.81
2023-05-05T08:23:33.916Z,67.45
2023-05-05T08:24:29.331Z,67.36
2023-05-05T08:25:24.825Z,67.34
2023-05-05T08:26:20.358Z,67.23
2023-05-05T08:27:15.764Z,66.29
2023-05-05T08:28:11.245Z,66.25
2023-05-05T08:29:06.885Z,65.93
2023-05-05T08:30:02.471Z,65.37
2023-05-05T08:30:57.908Z,65.05
2023-05-05T08:31:53.404Z,64.95
2023-05-05T08:32:48.783Z,63.75
2023-05-05T08:33:44.341Z,64.88
2023-05-05T08:34:39.733Z,63.77
2023-05-05T08:35:35.229Z,62.55
2023-05-05T08:36:30.844Z,61.01
2023-05-05T08:37:26.360Z,59.73
2023-05-05T08:38:21.706Z,58.41
2023-05-05T08:39:17.114Z,57.07
2023-05-05T08:40:12.753Z,56.70
2023-05-05T08:41:08.099Z,56.13
2023-05-05T08:42:03.343Z,55.27
2023-05-05T08:42:58.817Z,56.02
2023-05-05T08:43:54.215Z,55.23
2023-05-05T08:44:49.679Z,55.11
2023-05-05T08:45:45.166Z,53.94
2023-05-05T08:46:40.687Z,52.95
2023-05-05T08:47:36.440Z,52.75
2023-05-05T08:48:31.749Z,52.17
2023-05-05T08:49:27.257Z,52.19
2023-05-05T08:50:22.931Z,52.57
2023-05-05T08:51:18.250Z,52.87
2023-05-05T08:52:13.692Z,53.24
2023-05-05T08:53:09.113Z,53.44
2023-05-05T08:54:04.660Z,53.71
2023-05-05T08:55:00.286Z,54.10
2023-05-05T08:55:55.556Z,54.47
2023-05-05T08:56:51.064Z,54.78
2023-05-05T08:57:46.476Z,55.30
2023-05-05T08:58:41.922Z,55.21
2023-05-05T08:59:37.333Z,55.26
2023-05-05T09:00:33.200Z,55.44
2023-05-05T09:01:28.553Z,56.36
2023-05-05T09:02:24.037Z,55.52
2023-05-05T09:03:19.653Z,57.03
2023-05-05T09:04:15.099Z,56.93
2023-05-05T09:05:10.672Z,56.19
2023-05-05T09:06:06.332Z,56.34
2023-05-05T09:07:01.619Z,56.35
2023-05-05T09:07:57.092Z,56.89
2023-05-05T09:08:52.536Z,57.04
2023-05-05T09:09:47.976Z,57.50
2023-05-05T09:10:43.636Z,56.71
2023-05-05T09:11:38.993Z,56.37
2023-05-05T09:12:34.571Z,56.43
2023-05-05T09:13:30.116Z,56.46
2023-05-05T09:14:25.564Z,56.53
2023-05-05T09:15:21.514Z,56.53
2023-05-05T09:16:16.788Z,56.53
2023-05-05T09:17:12.215Z,56.71
2023-05-05T09:18:07.588Z,56.46
2023-05-05T09:19:03.057Z,56.29
2023-05-05T09:19:58.517Z,54.87
2023-05-05T09:20:54.052Z,54.25
2023-05-05T09:21:49.628Z,54.24
2023-05-05T09:22:45.092Z,54.15
2023-05-05T09:23:40.466Z,54.00
2023-05-05T09:24:36.003Z,53.77
2023-05-05T09:25:31.633Z,53.21
2023-05-05T09:26:27.142Z,53.55
2023-05-05T09:27:22.509Z,54.39
2023-05-05T09:28:17.854Z,54.34
2023-05-05T09:29:13.220Z,53.52
2023-05-05T09:30:08.718Z,53.49
2023-05-05T09:31:04.479Z,53.61
2023-05-05T09:31:59.753Z,53.51
2023-05-05T09:32:55.156Z,52.93
2023-05-05T09:33:50.800Z,52.85
2023-05-05T09:34:46.297Z,52.02
2023-05-05T09:35:41.530Z,52.35
2023-05-05T09:36:37.122Z,52.52
2023-05-05T09:37:32.775Z,52.61
2023-05-05T09:38:28.205Z,52.46
2023-05-05T09:39:23.569Z,52.24
2023-05-05T09:40:19.117Z,52.23
2023-05-05T09:41:14.548Z,51.91
2023-05-05T09:42:09.993Z,53.10
2023-05-05T09:43:05.625Z,52.08
2023-05-05T09:44:01.210Z,51.44
2023-05-05T09:44:57.924Z,51.47
2023-05-05T09:45:52.281Z,51.53
2023-05-05T09:46:47.473Z,50.65
2023-05-05T09:47:42.814Z,50.98
2023-05-05T09:48:38.148Z,50.60
2023-05-05T09:49:33.631Z,50.43
2023-05-05T09:50:29.174Z,50.74
2023-05-05T09:51:24.472Z,50.68
2023-05-05T09:52:19.968Z,50.77
2023-05-05T09:53:15.401Z,50.26
2023-05-05T09:54:10.907Z,50.20
2023-05-05T09:55:06.407Z,51.12
2023-05-05T09:56:01.921Z,51.66
2023-05-05T09:56:57.378Z,52.58
2023-05-05T09:57:52.721Z,53.56
2023-05-05T09:58:48.095Z,53.14
2023-05-05T09:59:43.573Z,53.28
2023-05-05T10:00:39.275Z,53.07
2023-05-05T10:01:34.504Z,52.70
2023-05-05T10:02:30.009Z,52.45
2023-05-05T10:03:25.384Z,51.50
2023-05-05T10:04:20.833Z,51.39
2023-05-05T10:05:16.398Z,51.25
2023-05-05T10:06:11.847Z,51.36
2023-05-05T10:07:07.477Z,51.34
2023-05-05T10:08:02.843Z,51.26
2023-05-05T10:08:58.196Z,51.29
2023-05-05T10:09:53.662Z,51.10
2023-05-05T10:10:49.053Z,51.26
2023-05-05T10:11:44.515Z,51.55
2023-05-05T10:12:39.914Z,51.61
2023-05-05T10:13:35.313Z,51.07
2023-05-05T10:14:30.930Z,51.55
2023-05-05T10:15:26.557Z,50.93
2023-05-05T10:16:22.027Z,50.52
2023-05-05T10:17:17.362Z,51.36
2023-05-05T10:18:12.935Z,51.64
2023-05-05T10:19:08.376Z,51.85
2023-05-05T10:20:04.042Z,52.26
2023-05-05T10:20:59.533Z,52.37
2023-05-05T10:21:55.069Z,52.59
2023-05-05T10:22:50.506Z,52.27
2023-05-05T10:23:46.005Z,51.57
2023-05-05T10:24:41.646Z,51.79
2023-05-05T10:25:36.854Z,51.32
2023-05-05T10:26:32.340Z,51.34
2023-05-05T10:27:27.946Z,51.67
2023-05-05T10:28:23.576Z,51.41
2023-05-05T10:29:19.099Z,50.88
2023-05-05T10:30:14.666Z,50.49
2023-05-05T10:31:19.997Z,50.04
2023-05-05T10:32:27.204Z,50.32
2023-05-05T10:33:17.394Z,50.57
2023-05-05T10:33:57.183Z,50.46
2023-05-05T10:34:51.710Z,49.57
2023-05-05T10:35:47.146Z,48.82
2023-05-05T10:36:42.529Z,48.46
2023-05-05T10:37:37.865Z,48.31
2023-05-05T10:38:33.490Z,48.60
2023-05-05T10:39:29.077Z,47.42
2023-05-05T10:40:24.418Z,47.67
2023-05-05T10:41:20.064Z,48.19
2023-05-05T10:42:15.587Z,47.94
2023-05-05T10:43:11.042Z,48.68
2023-05-05T10:44:06.469Z,47.83
2023-05-05T10:45:01.984Z,48.10
2023-05-05T10:45:57.415Z,48.27
2023-05-05T10:46:52.639Z,48.11
2023-05-05T10:47:48.188Z,48.58
2023-05-05T10:48:43.559Z,48.72
2023-05-05T10:49:39.243Z,48.37
2023-05-05T10:50:34.479Z,48.09
2023-05-05T10:51:39.442Z,47.81
2023-05-05T10:52:26.309Z,47.92
2023-05-05T10:53:20.861Z,47.60
2023-05-05T10:54:16.400Z,47.24
2023-05-05T10:55:11.862Z,46.89
2023-05-05T10:56:07.306Z,47.34
2023-05-05T10:57:02.729Z,46.48
2023-05-05T10:57:58.156Z,45.60
2023-05-05T10:59:00.073Z,44.56
2023-05-05T10:59:50.218Z,44.73
2023-05-05T11:00:44.807Z,44.51
2023-05-05T11:01:40.124Z,44.91
2023-05-05T11:02:35.528Z,45.10
2023-05-05T11:03:30.968Z,45.58
2023-05-05T11:04:26.384Z,45.59
2023-05-05T11:05:21.852Z,45.90
2023-05-05T11:06:17.595Z,45.95
2023-05-05T11:07:14.882Z,45.72
2023-05-05T11:08:08.778Z,45.38
2023-05-05T11:09:04.448Z,45.79
2023-05-05T11:09:59.985Z,45.64
2023-05-05T11:10:55.322Z,45.75
2023-05-05T11:11:50.852Z,45.56
2023-05-05T11:12:46.436Z,45.72
2023-05-05T11:13:42.145Z,45.72
2023-05-05T11:14:37.431Z,46.00
2023-05-05T11:15:32.828Z,44.64
2023-05-05T11:16:28.197Z,44.81
2023-05-05T11:17:23.869Z,45.18
2023-05-05T11:18:19.367Z,45.67
2023-05-05T11:19:14.611Z,45.38
2023-05-05T11:20:10.142Z,45.13
2023-05-05T11:21:05.492Z,44.72
2023-05-05T11:22:01.070Z,44.61
2023-05-05T11:22:56.426Z,43.10
2023-05-05T11:23:52.254Z,43.62
2023-05-05T11:24:47.621Z,44.71
2023-05-05T11:25:43.109Z,44.97
2023-05-05T11:26:38.446Z,44.97
2023-05-05T11:27:33.932Z,44.26
2023-05-05T11:28:29.319Z,43.96
2023-05-05T11:29:24.927Z,44.07
2023-05-05T11:30:20.352Z,44.57
2023-05-05T11:31:15.718Z,45.42
2023-05-05T11:32:11.194Z,45.88
2023-05-05T11:33:06.748Z,45.69
2023-05-05T11:34:02.071Z,45.84
2023-05-05T11:34:57.516Z,45.41
2023-05-05T11:35:52.907Z,46.19
2023-05-05T11:36:48.370Z,47.38
2023-05-05T11:37:43.713Z,47.71
2023-05-05T11:38:39.444Z,46.97
2023-05-05T11:39:34.781Z,46.68
2023-05-05T11:40:30.274Z,45.98
2023-05-05T11:41:25.508Z,46.15
2023-05-05T11:42:20.976Z,45.85
2023-05-05T11:43:16.658Z,45.86
2023-05-05T11:44:11.872Z,45.44
2023-05-05T11:45:07.474Z,45.69
2023-05-05T11:46:02.860Z,46.83
2023-05-05T11:47:01.077Z,47.27
2023-05-05T11:47:53.726Z,47.21
2023-05-05T11:48:49.267Z,47.55
2023-05-05T11:49:44.468Z,47.40
2023-05-05T11:50:40.085Z,47.77
2023-05-05T11:51:35.326Z,47.81
2023-05-05T11:52:30.797Z,46.98
2023-05-05T11:53:26.269Z,47.49
2023-05-05T11:54:21.937Z,48.36
2023-05-05T11:55:17.375Z,48.12